createdAt,value
2023-04-15T00:03:28.214Z,671.00
2023-04-15T00:07:28.296Z,676.00
2023-04-15T00:11:28.889Z,673.00
2023-04-15T00:15:28.930Z,671.00
2023-04-15T00:19:28.939Z,671.00
2023-04-15T00:23:28.999Z,673.00
2023-04-15T00:27:29.208Z,673.00
2023-04-15T00:31:29.650Z,673.00
2023-04-15T00:35:29.407Z,669.00
2023-04-15T00:39:29.444Z,667.00
2023-04-15T00:43:29.439Z,664.00
2023-04-15T00:47:29.041Z,663.00
2023-04-15T00:51:29.434Z,663.00
2023-04-15T00:55:29.460Z,657.00
2023-04-15T00:59:29.452Z,654.00
2023-04-15T01:03:29.425Z,648.00
2023-04-15T01:07:29.470Z,644.00
2023-04-15T01:11:29.672Z,647.00
2023-04-15T01:15:29.837Z,647.00
2023-04-15T01:19:30.027Z,649.00
2023-04-15T01:23:30.108Z,647.00
2023-04-15T01:27:30.203Z,644.00
2023-04-15T01:31:30.493Z,646.00
2023-04-15T01:35:30.444Z,641.00
2023-04-15T01:39:31.459Z,639.00
2023-04-15T01:43:30.624Z,638.00
2023-04-15T01:47:31.028Z,641.00
2023-04-15T01:51:30.973Z,636.00
2023-04-15T01:55:30.967Z,634.00
2023-04-15T01:59:30.954Z,629.00
2023-04-15T02:03:31.120Z,629.00
2023-04-15T02:07:31.476Z,629.00
2023-04-15T02:11:31.475Z,628.00
2023-04-15T02:15:31.491Z,633.00
2023-04-15T02:19:31.175Z,626.00
2023-04-15T02:23:31.132Z,624.00
2023-04-15T02:27:31.484Z,625.00
2023-04-15T02:31:31.502Z,627.00
2023-04-15T02:35:31.455Z,624.00
2023-04-15T02:39:31.098Z,623.00
2023-04-15T02:43:31.472Z,621.00
2023-04-15T02:47:31.534Z,618.00
2023-04-15T02:51:31.479Z,619.00
2023-04-15T02:55:31.504Z,617.00
2023-04-15T02:59:31.038Z,616.00
2023-04-15T03:03:31.158Z,612.00
2023-04-15T03:07:30.984Z,613.00
2023-04-15T03:11:30.934Z,607.00
2023-04-15T03:15:31.072Z,611.00
2023-04-15T03:19:30.907Z,613.00
2023-04-15T03:23:31.010Z,610.00
2023-04-15T03:27:31.035Z,606.00
2023-04-15T03:31:30.928Z,603.00
2023-04-15T03:35:31.017Z,607.00
2023-04-15T03:39:30.874Z,605.00
2023-04-15T03:43:31.031Z,601.00
2023-04-15T03:47:31.020Z,599.00
2023-04-15T03:51:31.015Z,596.00
2023-04-15T03:55:31.017Z,594.00
2023-04-15T03:59:30.853Z,594.00
2023-04-15T04:03:30.941Z,597.00
2023-04-15T04:07:30.830Z,589.00
2023-04-15T04:11:31.032Z,587.00
2023-04-15T04:15:30.815Z,591.00
2023-04-15T04:19:30.824Z,590.00
2023-04-15T04:23:30.858Z,596.00
2023-04-15T04:27:31.027Z,590.00
2023-04-15T04:31:30.947Z,588.00
2023-04-15T04:35:30.879Z,585.00
2023-04-15T04:39:31.056Z,587.00
2023-04-15T04:43:31.045Z,583.00
2023-04-15T04:47:31.081Z,584.00
2023-04-15T04:51:30.936Z,583.00
2023-04-15T04:55:30.954Z,580.00
2023-04-15T04:59:31.039Z,578.00
2023-04-15T05:03:31.043Z,579.00
2023-04-15T05:07:31.044Z,576.00
2023-04-15T05:11:31.055Z,576.00
2023-04-15T05:15:31.132Z,577.00
2023-04-15T05:19:31.549Z,574.00
2023-04-15T05:23:31.235Z,572.00
2023-04-15T05:27:31.525Z,574.00
2023-04-15T05:31:31.598Z,570.00
2023-04-15T05:35:31.330Z,572.00
2023-04-15T05:39:31.572Z,567.00
2023-04-15T05:43:31.419Z,567.00
2023-04-15T05:47:31.568Z,568.00
2023-04-15T05:51:31.533Z,559.00
2023-04-15T05:55:31.585Z,552.00
2023-04-15T05:59:32.045Z,554.00
2023-04-15T06:03:31.844Z,553.00
2023-04-15T06:07:32.060Z,552.00
2023-04-15T06:11:31.820Z,554.00
2023-04-15T06:15:31.929Z,557.00
2023-04-15T06:19:31.953Z,556.00
2023-04-15T06:23:32.035Z,563.00
2023-04-15T06:27:32.578Z,561.00
2023-04-15T06:31:32.624Z,561.00
2023-04-15T06:35:32.164Z,556.00
2023-04-15T06:39:32.564Z,556.00
2023-04-15T06:43:32.218Z,558.00
2023-04-15T06:47:32.689Z,563.00
2023-04-15T06:51:32.594Z,566.00
2023-04-15T06:55:32.402Z,566.00
2023-04-15T06:59:32.566Z,562.00
2023-04-15T07:03:32.942Z,559.00
2023-04-15T07:07:32.619Z,559.00
2023-04-15T07:11:32.603Z,559.00
2023-04-15T07:15:33.116Z,560.00
2023-04-15T07:19:32.685Z,563.00
2023-04-15T07:23:33.090Z,562.00
2023-04-15T07:27:32.795Z,558.00
2023-04-15T07:31:32.861Z,554.00
2023-04-15T07:35:32.842Z,553.00
2023-04-15T07:39:33.124Z,552.00
2023-04-15T07:43:33.117Z,555.00
2023-04-15T07:47:33.121Z,556.00
2023-04-15T07:51:33.026Z,556.00
2023-04-15T07:55:33.052Z,552.00
2023-04-15T07:59:33.127Z,547.00
2023-04-15T08:03:33.263Z,543.00
2023-04-15T08:07:33.173Z,546.00
2023-04-15T08:11:33.200Z,547.00
2023-04-15T08:15:33.616Z,542.00
2023-04-15T08:19:33.635Z,543.00
2023-04-15T08:23:33.622Z,540.00
2023-04-15T08:27:33.627Z,539.00
2023-04-15T08:31:33.325Z,544.00
2023-04-15T08:35:33.334Z,544.00
2023-04-15T08:39:33.623Z,541.00
2023-04-15T08:43:33.624Z,538.00
2023-04-15T08:47:33.379Z,540.00
2023-04-15T08:51:33.643Z,537.00
2023-04-15T08:55:33.696Z,539.00
2023-04-15T08:59:33.412Z,541.00
2023-04-15T09:03:33.466Z,536.00
2023-04-15T09:07:33.456Z,538.00
2023-04-15T09:11:33.638Z,535.00
2023-04-15T09:15:33.673Z,536.00
2023-04-15T09:19:33.405Z,529.00
2023-04-15T09:23:33.651Z,531.00
2023-04-15T09:27:33.360Z,536.00
2023-04-15T09:31:33.648Z,530.00
2023-04-15T09:35:33.660Z,530.00
2023-04-15T09:39:33.297Z,525.00
2023-04-15T09:43:33.681Z,521.00
2023-04-15T09:47:33.279Z,521.00
2023-04-15T09:51:33.704Z,522.00
2023-04-15T09:55:33.651Z,522.00
2023-04-15T09:59:33.163Z,522.00
2023-04-15T10:03:33.335Z,515.00
2023-04-15T10:07:33.183Z,517.00
2023-04-15T10:11:33.147Z,529.00
2023-04-15T10:15:33.197Z,526.00
2023-04-15T10:19:33.152Z,521.00
2023-04-15T10:23:33.096Z,520.00
2023-04-15T10:27:33.167Z,511.00
2023-04-15T10:31:33.268Z,513.00
2023-04-15T10:35:33.201Z,514.00
2023-04-15T10:39:33.038Z,516.00
2023-04-15T10:43:33.050Z,509.00
2023-04-15T10:47:33.238Z,511.00
2023-04-15T10:51:33.694Z,505.00
2023-04-15T10:55:32.978Z,508.00
2023-04-15T10:59:33.211Z,508.00
2023-04-15T11:03:33.168Z,513.00
2023-04-15T11:07:33.192Z,502.00
2023-04-15T11:11:32.912Z,505.00
2023-04-15T11:15:33.186Z,504.00
2023-04-15T11:19:33.204Z,502.00
2023-04-15T11:23:32.872Z,503.00
2023-04-15T11:27:33.187Z,502.00
2023-04-15T11:31:33.234Z,501.00
2023-04-15T11:35:33.185Z,496.00
2023-04-15T11:39:32.848Z,499.00
2023-04-15T11:43:32.799Z,494.00
2023-04-15T11:47:33.241Z,490.00
2023-04-15T11:51:32.828Z,486.00
2023-04-15T11:55:33.180Z,486.00
2023-04-15T11:59:44.429Z,486.00
2023-04-15T12:03:33.954Z,485.00
2023-04-15T12:07:32.731Z,482.00
2023-04-15T12:11:32.734Z,486.00
2023-04-15T12:15:32.669Z,489.00
2023-04-15T12:19:32.621Z,489.00
2023-04-15T12:23:32.702Z,486.00
2023-04-15T12:27:32.726Z,490.00
2023-04-15T12:31:32.822Z,486.00
2023-04-15T12:35:32.495Z,484.00
2023-04-15T12:39:32.505Z,485.00
2023-04-15T12:43:32.729Z,483.00
2023-04-15T12:47:32.863Z,478.00
2023-04-15T12:51:32.744Z,475.00
2023-04-15T12:55:32.720Z,481.00
2023-04-15T12:59:32.703Z,479.00
2023-04-15T13:03:39.974Z,478.00
2023-04-15T13:07:32.777Z,480.00
2023-04-15T13:11:32.741Z,475.00
2023-04-15T13:15:32.714Z,476.00
2023-04-15T13:19:32.680Z,473.00
2023-04-15T13:23:32.776Z,471.00
2023-04-15T13:27:32.777Z,470.00
2023-04-15T13:31:32.804Z,468.00
2023-04-15T13:35:32.541Z,468.00
2023-04-15T13:39:32.760Z,473.00
2023-04-15T13:43:32.795Z,470.00
2023-04-15T13:47:32.814Z,466.00
2023-04-15T13:51:32.849Z,466.00
2023-04-15T13:55:32.910Z,464.00
2023-04-15T13:59:33.277Z,469.00
2023-04-15T14:03:33.417Z,472.00
2023-04-15T14:07:33.303Z,467.00
2023-04-15T14:11:34.286Z,462.00
2023-04-15T14:15:33.432Z,456.00
2023-04-15T14:19:33.785Z,458.00
2023-04-15T14:23:33.804Z,458.00
2023-04-15T14:27:33.747Z,464.00
2023-04-15T14:31:34.307Z,462.00
2023-04-15T14:35:33.944Z,461.00
2023-04-15T14:39:34.304Z,457.00
2023-04-15T14:43:34.323Z,459.00
2023-04-15T14:47:34.303Z,457.00
2023-04-15T14:51:34.794Z,459.00
2023-04-15T14:55:34.415Z,460.00
2023-04-15T14:59:34.797Z,460.00
2023-04-15T15:03:34.939Z,454.00
2023-04-15T15:07:35.317Z,458.00
2023-04-15T15:11:34.947Z,452.00
2023-04-15T15:15:35.083Z,456.00
2023-04-15T15:19:35.316Z,456.00
2023-04-15T15:23:35.847Z,456.00
2023-04-15T15:27:38.115Z,454.00
2023-04-15T15:31:35.850Z,454.00
2023-04-15T15:35:35.387Z,454.00
2023-04-15T15:39:35.831Z,454.00
2023-04-15T15:43:35.804Z,454.00
2023-04-15T15:47:35.324Z,455.00
2023-04-15T15:51:35.248Z,457.00
2023-04-15T15:55:35.349Z,456.00
2023-04-15T15:59:35.343Z,449.00
2023-04-15T16:03:35.296Z,442.00
2023-04-15T16:07:35.323Z,442.00
2023-04-15T16:11:35.056Z,446.00
2023-04-15T16:15:35.033Z,444.00
2023-04-15T16:19:35.151Z,442.00
2023-04-15T16:23:35.310Z,444.00
2023-04-15T16:27:46.499Z,448.00
2023-04-15T16:31:36.486Z,451.00
2023-04-15T16:35:35.851Z,451.00
2023-04-15T16:39:35.867Z,454.00
2023-04-15T16:43:36.369Z,450.00
2023-04-15T16:47:36.387Z,451.00
2023-04-15T16:51:36.323Z,451.00
2023-04-15T16:55:36.840Z,449.00
2023-04-15T16:59:36.835Z,447.00
2023-04-15T17:03:37.024Z,448.00
2023-04-15T17:07:37.333Z,448.00
2023-04-15T17:11:37.204Z,444.00
2023-04-15T17:15:37.924Z,447.00
2023-04-15T17:19:37.827Z,445.00
2023-04-15T17:23:37.896Z,453.00
2023-04-15T17:27:38.358Z,452.00
2023-04-15T17:31:38.204Z,451.00
2023-04-15T17:35:38.882Z,444.00
2023-04-15T17:39:38.882Z,447.00
2023-04-15T17:43:38.896Z,451.00
2023-04-15T17:47:39.411Z,448.00
2023-04-15T17:51:39.195Z,450.00
2023-04-15T17:55:39.208Z,451.00
2023-04-15T17:59:39.140Z,452.00
2023-04-15T18:03:39.174Z,446.00
2023-04-15T18:07:39.388Z,450.00
2023-04-15T18:11:39.003Z,450.00
2023-04-15T18:15:38.956Z,450.00
2023-04-15T18:19:38.921Z,448.00
2023-04-15T18:23:38.904Z,449.00
2023-04-15T18:27:38.923Z,447.00
2023-04-15T18:31:38.854Z,448.00
2023-04-15T18:35:39.395Z,449.00
2023-04-15T18:39:39.388Z,447.00
2023-04-15T18:43:39.387Z,447.00
2023-04-15T18:47:39.321Z,452.00
2023-04-15T18:51:39.258Z,455.00
2023-04-15T18:55:39.389Z,453.00
2023-04-15T18:59:39.394Z,451.00
2023-04-15T19:03:39.171Z,450.00
2023-04-15T19:07:39.113Z,454.00
2023-04-15T19:11:39.062Z,452.00
2023-04-15T19:15:39.447Z,449.00
2023-04-15T19:19:39.004Z,451.00
2023-04-15T19:23:39.414Z,455.00
2023-04-15T19:27:39.113Z,453.00
2023-04-15T19:31:39.398Z,454.00
2023-04-15T19:35:39.408Z,455.00
2023-04-15T19:39:39.400Z,456.00
2023-04-15T19:43:39.439Z,453.00
2023-04-15T19:47:39.018Z,453.00
2023-04-15T19:51:38.863Z,458.00
2023-04-15T19:55:38.941Z,461.00
2023-04-15T19:59:38.787Z,460.00
2023-04-15T20:03:38.910Z,461.00
2023-04-15T20:07:38.744Z,461.00
2023-04-15T20:12:46.792Z,458.00
2023-04-15T20:15:39.951Z,456.00
2023-04-15T20:19:38.861Z,455.00
2023-04-15T20:23:38.916Z,457.00
2023-04-15T20:27:38.811Z,458.00
2023-04-15T20:31:38.986Z,457.00
2023-04-15T20:35:38.955Z,455.00
2023-04-15T20:39:38.926Z,450.00
2023-04-15T20:43:38.632Z,451.00
2023-04-15T20:47:38.955Z,455.00
2023-04-15T20:51:38.987Z,459.00
2023-04-15T20:55:38.952Z,455.00
2023-04-15T20:59:38.594Z,449.00
2023-04-15T21:03:38.766Z,444.00
2023-04-15T21:07:38.554Z,445.00
2023-04-15T21:11:57.259Z,443.00
2023-04-15T21:15:39.974Z,445.00
2023-04-15T21:19:38.972Z,449.00
2023-04-15T21:23:38.557Z,450.00
2023-04-15T21:27:38.982Z,454.00
2023-04-15T21:31:39.045Z,455.00
2023-04-15T21:35:38.481Z,455.00
2023-04-15T21:39:38.460Z,456.00
2023-04-15T21:43:38.383Z,462.00
2023-04-15T21:48:04.785Z,459.00
2023-04-15T21:51:39.514Z,461.00
2023-04-15T21:55:38.466Z,463.00
2023-04-15T21:59:38.340Z,458.00
2023-04-15T22:03:38.459Z,462.00
2023-04-15T22:07:38.478Z,461.00
2023-04-15T22:11:38.486Z,460.00
2023-04-15T22:15:38.193Z,458.00
2023-04-15T22:19:38.154Z,461.00
2023-04-15T22:23:38.483Z,460.00
2023-04-15T22:27:38.473Z,460.00
2023-04-15T22:31:38.077Z,457.00
2023-04-15T22:35:38.511Z,460.00
2023-04-15T22:39:38.196Z,463.00
2023-04-15T22:43:38.499Z,459.00
2023-04-15T22:47:38.513Z,452.00
2023-04-15T22:51:38.525Z,455.00
2023-04-15T22:55:38.028Z,454.00
2023-04-15T22:59:37.992Z,456.00
2023-04-15T23:03:55.829Z,457.00
2023-04-15T23:07:39.555Z,456.00
2023-04-15T23:11:37.995Z,454.00
2023-04-15T23:15:40.232Z,454.00
2023-04-15T23:19:37.977Z,455.00
2023-04-15T23:23:37.903Z,456.00
2023-04-15T23:27:38.021Z,450.00
2023-04-15T23:31:39.072Z,449.00
2023-04-15T23:35:37.835Z,449.00
2023-04-15T23:39:37.831Z,448.00
2023-04-15T23:43:38.035Z,445.00
2023-04-15T23:47:38.037Z,447.00
2023-04-15T23:51:38.000Z,451.00
2023-04-15T23:55:37.831Z,449.00
2023-04-15T23:59:39.528Z,446.00
